sensor_id;sensor_type;location;lat;lon;timestamp;P1;durP1;ratioP1;P2;durP2;ratioP2
14171;SDS011;7165;52.388;4.928;2024-02-23T00:01:12;6.33;;;4.17;;
14171;SDS011;7165;52.388;4.928;2024-02-23T00:03:40;11.87;;;4.97;;
14171;SDS011;7165;52.388;4.928;2024-02-23T00:06:06;6.20;;;3.63;;
14171;SDS011;7165;52.388;4.928;2024-02-23T00:08:34;13.53;;;4.17;;
14171;SDS011;7165;52.388;4.928;2024-02-23T00:11:00;8.70;;;4.25;;
14171;SDS011;7165;52.388;4.928;2024-02-23T00:13:29;11.23;;;4.00;;
14171;SDS011;7165;52.388;4.928;2024-02-23T00:15:56;9.33;;;3.60;;
14171;SDS011;7165;52.388;4.928;2024-02-23T00:18:23;8.77;;;4.17;;
14171;SDS011;7165;52.388;4.928;2024-02-23T00:20:50;10.70;;;3.73;;
14171;SDS011;7165;52.388;4.928;2024-02-23T00:23:17;9.00;;;3.87;;
14171;SDS011;7165;52.388;4.928;2024-02-23T00:25:44;9.60;;;4.33;;
14171;SDS011;7165;52.388;4.928;2024-02-23T00:28:11;10.07;;;4.27;;
14171;SDS011;7165;52.388;4.928;2024-02-23T00:30:39;13.80;;;4.37;;
14171;SDS011;7165;52.388;4.928;2024-02-23T00:33:06;7.87;;;3.60;;
14171;SDS011;7165;52.388;4.928;2024-02-23T00:35:34;10.53;;;4.00;;
14171;SDS011;7165;52.388;4.928;2024-02-23T00:38:01;8.93;;;4.13;;
14171;SDS011;7165;52.388;4.928;2024-02-23T00:40:27;9.30;;;4.10;;
14171;SDS011;7165;52.388;4.928;2024-02-23T00:42:54;10.07;;;4.67;;
14171;SDS011;7165;52.388;4.928;2024-02-23T00:45:21;11.90;;;3.90;;
14171;SDS011;7165;52.388;4.928;2024-02-23T00:47:49;10.90;;;4.60;;
14171;SDS011;7165;52.388;4.928;2024-02-23T00:50:16;7.70;;;3.80;;
14171;SDS011;7165;52.388;4.928;2024-02-23T00:52:43;9.15;;;3.70;;
14171;SDS011;7165;52.388;4.928;2024-02-23T00:55:10;10.80;;;4.70;;
14171;SDS011;7165;52.388;4.928;2024-02-23T00:57:37;11.50;;;4.13;;
14171;SDS011;7165;52.388;4.928;2024-02-23T01:00:05;9.93;;;3.97;;
14171;SDS011;7165;52.388;4.928;2024-02-23T01:02:34;10.63;;;4.10;;
14171;SDS011;7165;52.388;4.928;2024-02-23T01:05:02;9.87;;;3.77;;
14171;SDS011;7165;52.388;4.928;2024-02-23T01:07:30;9.57;;;3.63;;
14171;SDS011;7165;52.388;4.928;2024-02-23T01:09:57;12.23;;;3.80;;
14171;SDS011;7165;52.388;4.928;2024-02-23T01:12:24;10.00;;;4.50;;
14171;SDS011;7165;52.388;4.928;2024-02-23T01:14:51;9.57;;;3.83;;
14171;SDS011;7165;52.388;4.928;2024-02-23T01:17:18;12.25;;;4.15;;
14171;SDS011;7165;52.388;4.928;2024-02-23T01:19:45;7.77;;;4.03;;
14171;SDS011;7165;52.388;4.928;2024-02-23T01:22:13;8.20;;;3.17;;
14171;SDS011;7165;52.388;4.928;2024-02-23T01:24:40;7.97;;;3.70;;
14171;SDS011;7165;52.388;4.928;2024-02-23T01:27:07;7.80;;;3.80;;
14171;SDS011;7165;52.388;4.928;2024-02-23T01:29:33;8.00;;;3.50;;
14171;SDS011;7165;52.388;4.928;2024-02-23T01:32:00;10.30;;;4.10;;
14171;SDS011;7165;52.388;4.928;2024-02-23T01:34:27;12.15;;;4.20;;
14171;SDS011;7165;52.388;4.928;2024-02-23T01:36:54;12.47;;;3.83;;
14171;SDS011;7165;52.388;4.928;2024-02-23T01:39:22;11.10;;;4.13;;
14171;SDS011;7165;52.388;4.928;2024-02-23T01:41:49;8.57;;;3.60;;
14171;SDS011;7165;52.388;4.928;2024-02-23T01:44:16;11.50;;;4.60;;
14171;SDS011;7165;52.388;4.928;2024-02-23T01:46:45;10.83;;;4.00;;
14171;SDS011;7165;52.388;4.928;2024-02-23T01:49:12;8.50;;;3.70;;
14171;SDS011;7165;52.388;4.928;2024-02-23T01:51:40;13.03;;;4.47;;
14171;SDS011;7165;52.388;4.928;2024-02-23T01:54:07;8.83;;;4.17;;
14171;SDS011;7165;52.388;4.928;2024-02-23T01:56:37;11.70;;;4.15;;
14171;SDS011;7165;52.388;4.928;2024-02-23T01:59:04;12.57;;;4.20;;
14171;SDS011;7165;52.388;4.928;2024-02-23T02:01:33;12.00;;;3.50;;
14171;SDS011;7165;52.388;4.928;2024-02-23T02:04:00;6.25;;;3.90;;
14171;SDS011;7165;52.388;4.928;2024-02-23T02:06:27;11.87;;;4.57;;
14171;SDS011;7165;52.388;4.928;2024-02-23T02:08:54;9.67;;;3.70;;
14171;SDS011;7165;52.388;4.928;2024-02-23T02:11:21;12.13;;;4.23;;
14171;SDS011;7165;52.388;4.928;2024-02-23T02:13:49;8.53;;;3.47;;
14171;SDS011;7165;52.388;4.928;2024-02-23T02:16:16;7.80;;;4.00;;
14171;SDS011;7165;52.388;4.928;2024-02-23T02:18:43;8.60;;;3.93;;
14171;SDS011;7165;52.388;4.928;2024-02-23T02:21:11;11.10;;;4.43;;
14171;SDS011;7165;52.388;4.928;2024-02-23T02:23:38;12.07;;;4.03;;
14171;SDS011;7165;52.388;4.928;2024-02-23T02:26:05;5.50;;;3.43;;
14171;SDS011;7165;52.388;4.928;2024-02-23T02:28:32;23.20;;;5.40;;
14171;SDS011;7165;52.388;4.928;2024-02-23T02:31:00;13.73;;;4.33;;
14171;SDS011;7165;52.388;4.928;2024-02-23T02:33:28;9.15;;;3.95;;
14171;SDS011;7165;52.388;4.928;2024-02-23T02:35:55;6.53;;;3.90;;
14171;SDS011;7165;52.388;4.928;2024-02-23T02:38:21;5.00;;;3.35;;
14171;SDS011;7165;52.388;4.928;2024-02-23T02:40:49;7.40;;;3.85;;
14171;SDS011;7165;52.388;4.928;2024-02-23T02:43:15;8.67;;;3.30;;
14171;SDS011;7165;52.388;4.928;2024-02-23T02:45:42;6.07;;;3.47;;
14171;SDS011;7165;52.388;4.928;2024-02-23T02:50:38;7.65;;;3.90;;
14171;SDS011;7165;52.388;4.928;2024-02-23T02:53:05;7.55;;;3.85;;
14171;SDS011;7165;52.388;4.928;2024-02-23T02:55:32;8.17;;;4.83;;
14171;SDS011;7165;52.388;4.928;2024-02-23T02:57:59;7.93;;;3.77;;
14171;SDS011;7165;52.388;4.928;2024-02-23T03:00:25;8.70;;;3.70;;
14171;SDS011;7165;52.388;4.928;2024-02-23T03:02:52;7.17;;;3.73;;
14171;SDS011;7165;52.388;4.928;2024-02-23T03:05:21;5.10;;;3.20;;
14171;SDS011;7165;52.388;4.928;2024-02-23T03:07:48;11.55;;;4.35;;
14171;SDS011;7165;52.388;4.928;2024-02-23T03:10:14;10.75;;;4.45;;
14171;SDS011;7165;52.388;4.928;2024-02-23T03:12:41;10.60;;;4.40;;
14171;SDS011;7165;52.388;4.928;2024-02-23T03:15:09;10.40;;;4.10;;
14171;SDS011;7165;52.388;4.928;2024-02-23T03:17:36;9.27;;;4.00;;
14171;SDS011;7165;52.388;4.928;2024-02-23T03:20:03;6.40;;;3.50;;
14171;SDS011;7165;52.388;4.928;2024-02-23T03:22:34;12.90;;;4.60;;
14171;SDS011;7165;52.388;4.928;2024-02-23T03:25:01;9.03;;;4.40;;
14171;SDS011;7165;52.388;4.928;2024-02-23T03:27:33;6.90;;;3.85;;
14171;SDS011;7165;52.388;4.928;2024-02-23T03:30:01;7.43;;;4.33;;
14171;SDS011;7165;52.388;4.928;2024-02-23T03:32:29;10.55;;;3.70;;
14171;SDS011;7165;52.388;4.928;2024-02-23T03:35:01;7.30;;;3.75;;
14171;SDS011;7165;52.388;4.928;2024-02-23T03:37:28;6.50;;;3.75;;
14171;SDS011;7165;52.388;4.928;2024-02-23T03:39:56;7.35;;;3.80;;
14171;SDS011;7165;52.388;4.928;2024-02-23T03:42:24;5.05;;;3.10;;
14171;SDS011;7165;52.388;4.928;2024-02-23T03:44:51;8.37;;;3.70;;
14171;SDS011;7165;52.388;4.928;2024-02-23T03:47:18;8.40;;;3.87;;
14171;SDS011;7165;52.388;4.928;2024-02-23T03:49:45;7.75;;;3.30;;
14171;SDS011;7165;52.388;4.928;2024-02-23T03:52:12;4.53;;;2.93;;
14171;SDS011;7165;52.388;4.928;2024-02-23T03:54:39;9.57;;;3.73;;
14171;SDS011;7165;52.388;4.928;2024-02-23T03:57:07;5.43;;;3.50;;
14171;SDS011;7165;52.388;4.928;2024-02-23T03:59:35;15.00;;;4.80;;
14171;SDS011;7165;52.388;4.928;2024-02-23T04:02:03;5.77;;;3.07;;
14171;SDS011;7165;52.388;4.928;2024-02-23T04:04:30;9.45;;;4.60;;
14171;SDS011;7165;52.388;4.928;2024-02-23T04:06:57;5.50;;;3.40;;
14171;SDS011;7165;52.388;4.928;2024-02-23T04:09:24;9.70;;;3.57;;
14171;SDS011;7165;52.388;4.928;2024-02-23T04:11:51;6.73;;;3.23;;
14171;SDS011;7165;52.388;4.928;2024-02-23T04:14:19;7.47;;;4.03;;
14171;SDS011;7165;52.388;4.928;2024-02-23T04:16:46;9.03;;;4.37;;
14171;SDS011;7165;52.388;4.928;2024-02-23T04:19:13;6.13;;;3.93;;
14171;SDS011;7165;52.388;4.928;2024-02-23T04:24:06;7.93;;;3.80;;
14171;SDS011;7165;52.388;4.928;2024-02-23T04:26:33;5.33;;;4.00;;
14171;SDS011;7165;52.388;4.928;2024-02-23T04:29:00;6.47;;;4.00;;
14171;SDS011;7165;52.388;4.928;2024-02-23T04:31:28;8.87;;;4.37;;
14171;SDS011;7165;52.388;4.928;2024-02-23T04:33:55;9.63;;;4.40;;
14171;SDS011;7165;52.388;4.928;2024-02-23T04:36:22;9.00;;;4.93;;
14171;SDS011;7165;52.388;4.928;2024-02-23T04:38:49;9.37;;;4.37;;
14171;SDS011;7165;52.388;4.928;2024-02-23T04:41:19;8.83;;;4.40;;
14171;SDS011;7165;52.388;4.928;2024-02-23T04:43:47;10.93;;;3.80;;
14171;SDS011;7165;52.388;4.928;2024-02-23T04:46:14;6.17;;;3.70;;
14171;SDS011;7165;52.388;4.928;2024-02-23T04:48:42;8.13;;;3.90;;
14171;SDS011;7165;52.388;4.928;2024-02-23T04:53:36;9.23;;;3.67;;
14171;SDS011;7165;52.388;4.928;2024-02-23T04:56:03;8.43;;;4.23;;
14171;SDS011;7165;52.388;4.928;2024-02-23T04:58:30;6.73;;;3.93;;
14171;SDS011;7165;52.388;4.928;2024-02-23T05:00:57;7.07;;;3.77;;
14171;SDS011;7165;52.388;4.928;2024-02-23T05:03:24;11.00;;;3.77;;
14171;SDS011;7165;52.388;4.928;2024-02-23T05:05:53;7.13;;;3.87;;
14171;SDS011;7165;52.388;4.928;2024-02-23T05:08:19;8.90;;;3.63;;
14171;SDS011;7165;52.388;4.928;2024-02-23T05:10:46;11.50;;;4.53;;
14171;SDS011;7165;52.388;4.928;2024-02-23T05:13:13;7.83;;;4.20;;
14171;SDS011;7165;52.388;4.928;2024-02-23T05:15:40;11.07;;;4.73;;
14171;SDS011;7165;52.388;4.928;2024-02-23T05:18:08;7.00;;;4.60;;
14171;SDS011;7165;52.388;4.928;2024-02-23T05:20:35;6.87;;;4.83;;
14171;SDS011;7165;52.388;4.928;2024-02-23T05:23:04;7.43;;;4.73;;
14171;SDS011;7165;52.388;4.928;2024-02-23T05:25:30;7.30;;;4.80;;
14171;SDS011;7165;52.388;4.928;2024-02-23T05:27:57;9.83;;;5.20;;
14171;SDS011;7165;52.388;4.928;2024-02-23T05:30:24;6.80;;;4.53;;
14171;SDS011;7165;52.388;4.928;2024-02-23T05:32:52;7.23;;;4.60;;
14171;SDS011;7165;52.388;4.928;2024-02-23T05:35:19;5.23;;;4.57;;
14171;SDS011;7165;52.388;4.928;2024-02-23T05:37:46;4.97;;;4.47;;
14171;SDS011;7165;52.388;4.928;2024-02-23T05:40:16;6.63;;;4.30;;
14171;SDS011;7165;52.388;4.928;2024-02-23T05:42:43;8.85;;;4.25;;
14171;SDS011;7165;52.388;4.928;2024-02-23T05:45:10;7.53;;;4.03;;
14171;SDS011;7165;52.388;4.928;2024-02-23T05:47:37;5.93;;;3.20;;
14171;SDS011;7165;52.388;4.928;2024-02-23T05:50:04;4.83;;;3.50;;
14171;SDS011;7165;52.388;4.928;2024-02-23T05:52:32;7.93;;;3.40;;
14171;SDS011;7165;52.388;4.928;2024-02-23T05:54:59;6.53;;;3.60;;
14171;SDS011;7165;52.388;4.928;2024-02-23T05:57:28;5.97;;;3.57;;
14171;SDS011;7165;52.388;4.928;2024-02-23T05:59:55;4.50;;;4.10;;
14171;SDS011;7165;52.388;4.928;2024-02-23T06:02:22;3.17;;;2.87;;
14171;SDS011;7165;52.388;4.928;2024-02-23T06:04:49;4.90;;;2.90;;
14171;SDS011;7165;52.388;4.928;2024-02-23T06:07:16;5.40;;;3.13;;
14171;SDS011;7165;52.388;4.928;2024-02-23T06:09:43;3.73;;;3.00;;
14171;SDS011;7165;52.388;4.928;2024-02-23T06:12:10;4.67;;;3.27;;
14171;SDS011;7165;52.388;4.928;2024-02-23T06:14:38;8.80;;;3.75;;
14171;SDS011;7165;52.388;4.928;2024-02-23T06:17:05;4.50;;;3.00;;
14171;SDS011;7165;52.388;4.928;2024-02-23T06:19:33;5.57;;;3.93;;
14171;SDS011;7165;52.388;4.928;2024-02-23T06:22:00;11.43;;;4.20;;
14171;SDS011;7165;52.388;4.928;2024-02-23T06:24:27;10.85;;;4.20;;
14171;SDS011;7165;52.388;4.928;2024-02-23T06:26:54;4.77;;;4.23;;
14171;SDS011;7165;52.388;4.928;2024-02-23T06:29:23;5.97;;;3.70;;
14171;SDS011;7165;52.388;4.928;2024-02-23T06:31:51;5.70;;;4.37;;
14171;SDS011;7165;52.388;4.928;2024-02-23T06:34:18;6.83;;;4.93;;
14171;SDS011;7165;52.388;4.928;2024-02-23T06:36:44;7.67;;;4.43;;
14171;SDS011;7165;52.388;4.928;2024-02-23T06:39:11;10.93;;;4.90;;
14171;SDS011;7165;52.388;4.928;2024-02-23T06:41:38;7.40;;;4.80;;
14171;SDS011;7165;52.388;4.928;2024-02-23T06:44:05;6.07;;;4.33;;
14171;SDS011;7165;52.388;4.928;2024-02-23T06:46:32;12.27;;;5.30;;
14171;SDS011;7165;52.388;4.928;2024-02-23T06:49:01;10.37;;;6.57;;
14171;SDS011;7165;52.388;4.928;2024-02-23T06:51:29;5.57;;;5.07;;
14171;SDS011;7165;52.388;4.928;2024-02-23T06:53:57;8.47;;;6.30;;
14171;SDS011;7165;52.388;4.928;2024-02-23T06:56:24;6.33;;;5.13;;
14171;SDS011;7165;52.388;4.928;2024-02-23T06:58:51;10.77;;;6.33;;
14171;SDS011;7165;52.388;4.928;2024-02-23T07:01:19;5.13;;;4.63;;
14171;SDS011;7165;52.388;4.928;2024-02-23T07:03:46;7.27;;;5.13;;
14171;SDS011;7165;52.388;4.928;2024-02-23T07:06:17;8.17;;;5.13;;
14171;SDS011;7165;52.388;4.928;2024-02-23T07:08:44;5.50;;;5.00;;
14171;SDS011;7165;52.388;4.928;2024-02-23T07:11:11;8.30;;;5.70;;
14171;SDS011;7165;52.388;4.928;2024-02-23T07:13:38;6.67;;;6.10;;
14171;SDS011;7165;52.388;4.928;2024-02-23T07:16:08;8.30;;;5.73;;
14171;SDS011;7165;52.388;4.928;2024-02-23T07:18:35;7.87;;;6.20;;
14171;SDS011;7165;52.388;4.928;2024-02-23T07:21:02;6.50;;;5.73;;
14171;SDS011;7165;52.388;4.928;2024-02-23T07:23:30;8.40;;;5.73;;
14171;SDS011;7165;52.388;4.928;2024-02-23T07:25:57;9.33;;;6.90;;
14171;SDS011;7165;52.388;4.928;2024-02-23T07:28:24;7.17;;;5.87;;
14171;SDS011;7165;52.388;4.928;2024-02-23T07:30:51;7.57;;;6.77;;
14171;SDS011;7165;52.388;4.928;2024-02-23T07:33:18;8.00;;;6.47;;
14171;SDS011;7165;52.388;4.928;2024-02-23T07:35:45;6.90;;;6.20;;
14171;SDS011;7165;52.388;4.928;2024-02-23T07:38:12;8.40;;;6.65;;
14171;SDS011;7165;52.388;4.928;2024-02-23T07:40:40;7.43;;;5.90;;
14171;SDS011;7165;52.388;4.928;2024-02-23T07:43:07;6.43;;;5.83;;
14171;SDS011;7165;52.388;4.928;2024-02-23T07:45:35;8.17;;;5.40;;
14171;SDS011;7165;52.388;4.928;2024-02-23T07:48:03;6.60;;;6.00;;
14171;SDS011;7165;52.388;4.928;2024-02-23T07:50:30;8.20;;;5.90;;
14171;SDS011;7165;52.388;4.928;2024-02-23T07:52:57;7.50;;;6.50;;
14171;SDS011;7165;52.388;4.928;2024-02-23T07:55:24;7.13;;;5.17;;
14171;SDS011;7165;52.388;4.928;2024-02-23T07:57:52;10.33;;;6.10;;
14171;SDS011;7165;52.388;4.928;2024-02-23T08:00:22;7.37;;;4.97;;
14171;SDS011;7165;52.388;4.928;2024-02-23T08:02:49;10.50;;;5.70;;
14171;SDS011;7165;52.388;4.928;2024-02-23T08:05:16;6.80;;;5.80;;
14171;SDS011;7165;52.388;4.928;2024-02-23T08:07:43;6.07;;;5.27;;
14171;SDS011;7165;52.388;4.928;2024-02-23T08:10:10;6.27;;;4.63;;
14171;SDS011;7165;52.388;4.928;2024-02-23T08:12:38;5.50;;;5.00;;
14171;SDS011;7165;52.388;4.928;2024-02-23T08:15:07;5.90;;;5.10;;
14171;SDS011;7165;52.388;4.928;2024-02-23T08:17:34;7.60;;;5.17;;
14171;SDS011;7165;52.388;4.928;2024-02-23T08:20:01;7.97;;;5.47;;
14171;SDS011;7165;52.388;4.928;2024-02-23T08:22:29;12.17;;;5.67;;
14171;SDS011;7165;52.388;4.928;2024-02-23T08:24:56;7.13;;;5.20;;
14171;SDS011;7165;52.388;4.928;2024-02-23T08:27:23;7.30;;;5.43;;
14171;SDS011;7165;52.388;4.928;2024-02-23T08:29:49;5.37;;;4.97;;
14171;SDS011;7165;52.388;4.928;2024-02-23T08:32:18;6.83;;;5.00;;
14171;SDS011;7165;52.388;4.928;2024-02-23T08:34:45;5.73;;;5.20;;
14171;SDS011;7165;52.388;4.928;2024-02-23T08:37:12;5.50;;;4.57;;
14171;SDS011;7165;52.388;4.928;2024-02-23T08:39:39;8.27;;;4.93;;
14171;SDS011;7165;52.388;4.928;2024-02-23T08:42:06;10.97;;;4.50;;
14171;SDS011;7165;52.388;4.928;2024-02-23T08:44:32;7.27;;;4.93;;
14171;SDS011;7165;52.388;4.928;2024-02-23T08:49:28;7.57;;;5.13;;
14171;SDS011;7165;52.388;4.928;2024-02-23T08:51:55;6.83;;;5.53;;
14171;SDS011;7165;52.388;4.928;2024-02-23T08:54:23;5.77;;;5.10;;
14171;SDS011;7165;52.388;4.928;2024-02-23T08:56:50;11.83;;;6.43;;
14171;SDS011;7165;52.388;4.928;2024-02-23T08:59:17;7.97;;;5.60;;
14171;SDS011;7165;52.388;4.928;2024-02-23T09:01:44;5.50;;;4.90;;
14171;SDS011;7165;52.388;4.928;2024-02-23T09:04:12;8.13;;;5.47;;
14171;SDS011;7165;52.388;4.928;2024-02-23T09:06:40;5.27;;;4.73;;
14171;SDS011;7165;52.388;4.928;2024-02-23T09:09:07;6.25;;;5.20;;
14171;SDS011;7165;52.388;4.928;2024-02-23T09:11:34;8.00;;;5.90;;
14171;SDS011;7165;52.388;4.928;2024-02-23T09:14:02;5.65;;;5.10;;
14171;SDS011;7165;52.388;4.928;2024-02-23T09:16:29;5.87;;;4.50;;
14171;SDS011;7165;52.388;4.928;2024-02-23T09:18:56;8.60;;;4.80;;
14171;SDS011;7165;52.388;4.928;2024-02-23T09:21:23;7.70;;;5.30;;
14171;SDS011;7165;52.388;4.928;2024-02-23T09:23:51;4.93;;;4.53;;
14171;SDS011;7165;52.388;4.928;2024-02-23T09:26:18;5.35;;;4.85;;
14171;SDS011;7165;52.388;4.928;2024-02-23T09:28:45;4.73;;;4.33;;
14171;SDS011;7165;52.388;4.928;2024-02-23T09:31:12;4.77;;;4.33;;
14171;SDS011;7165;52.388;4.928;2024-02-23T09:33:39;8.60;;;4.13;;
14171;SDS011;7165;52.388;4.928;2024-02-23T09:36:06;10.20;;;4.83;;
14171;SDS011;7165;52.388;4.928;2024-02-23T09:38:34;5.33;;;4.27;;
14171;SDS011;7165;52.388;4.928;2024-02-23T09:41:03;4.70;;;4.30;;
14171;SDS011;7165;52.388;4.928;2024-02-23T09:43:30;5.57;;;4.20;;
14171;SDS011;7165;52.388;4.928;2024-02-23T09:45:59;7.23;;;4.60;;
14171;SDS011;7165;52.388;4.928;2024-02-23T09:48:26;5.63;;;4.10;;
14171;SDS011;7165;52.388;4.928;2024-02-23T09:50:53;6.67;;;4.07;;
14171;SDS011;7165;52.388;4.928;2024-02-23T09:53:21;7.90;;;4.00;;
14171;SDS011;7165;52.388;4.928;2024-02-23T09:55:49;5.10;;;4.10;;
14171;SDS011;7165;52.388;4.928;2024-02-23T09:58:18;5.90;;;4.00;;
14171;SDS011;7165;52.388;4.928;2024-02-23T10:00:46;5.20;;;4.73;;
14171;SDS011;7165;52.388;4.928;2024-02-23T10:03:13;4.60;;;4.20;;
14171;SDS011;7165;52.388;4.928;2024-02-23T10:05:40;6.60;;;4.33;;
14171;SDS011;7165;52.388;4.928;2024-02-23T10:08:08;4.13;;;3.90;;
14171;SDS011;7165;52.388;4.928;2024-02-23T10:10:35;4.40;;;4.00;;
14171;SDS011;7165;52.388;4.928;2024-02-23T10:13:03;5.47;;;4.57;;
14171;SDS011;7165;52.388;4.928;2024-02-23T10:15:31;5.27;;;4.13;;
14171;SDS011;7165;52.388;4.928;2024-02-23T10:17:58;7.40;;;4.57;;
14171;SDS011;7165;52.388;4.928;2024-02-23T10:20:25;5.00;;;4.55;;
14171;SDS011;7165;52.388;4.928;2024-02-23T10:22:52;5.90;;;4.65;;
14171;SDS011;7165;52.388;4.928;2024-02-23T10:25:19;7.30;;;4.20;;
14171;SDS011;7165;52.388;4.928;2024-02-23T10:27:46;8.00;;;4.63;;
14171;SDS011;7165;52.388;4.928;2024-02-23T10:30:13;5.73;;;4.40;;
14171;SDS011;7165;52.388;4.928;2024-02-23T10:32:42;8.25;;;4.30;;
14171;SDS011;7165;52.388;4.928;2024-02-23T10:35:10;4.80;;;4.27;;
14171;SDS011;7165;52.388;4.928;2024-02-23T10:37:39;4.43;;;4.03;;
14171;SDS011;7165;52.388;4.928;2024-02-23T10:40:08;4.70;;;4.30;;
14171;SDS011;7165;52.388;4.928;2024-02-23T10:42:38;5.83;;;4.20;;
14171;SDS011;7165;52.388;4.928;2024-02-23T10:45:07;5.13;;;3.70;;
14171;SDS011;7165;52.388;4.928;2024-02-23T10:47:34;6.27;;;4.37;;
14171;SDS011;7165;52.388;4.928;2024-02-23T10:50:04;3.95;;;3.65;;
14171;SDS011;7165;52.388;4.928;2024-02-23T10:52:33;5.47;;;4.53;;
14171;SDS011;7165;52.388;4.928;2024-02-23T10:55:01;7.97;;;3.80;;
14171;SDS011;7165;52.388;4.928;2024-02-23T10:57:30;4.30;;;3.87;;
14171;SDS011;7165;52.388;4.928;2024-02-23T10:59:58;6.47;;;3.57;;
14171;SDS011;7165;52.388;4.928;2024-02-23T11:02:26;4.87;;;3.80;;
14171;SDS011;7165;52.388;4.928;2024-02-23T11:04:55;5.68;;;3.63;;
14171;SDS011;7165;52.388;4.928;2024-02-23T11:07:29;3.40;;;3.10;;
14171;SDS011;7165;52.388;4.928;2024-02-23T11:09:58;4.47;;;3.07;;
14171;SDS011;7165;52.388;4.928;2024-02-23T11:12:25;4.50;;;3.67;;
14171;SDS011;7165;52.388;4.928;2024-02-23T11:14:56;4.47;;;3.33;;
14171;SDS011;7165;52.388;4.928;2024-02-23T11:17:25;4.50;;;3.22;;
14171;SDS011;7165;52.388;4.928;2024-02-23T11:19:54;3.42;;;3.10;;
14171;SDS011;7165;52.388;4.928;2024-02-23T11:22:24;6.95;;;3.75;;
14171;SDS011;7165;52.388;4.928;2024-02-23T11:24:59;4.35;;;3.60;;
14171;SDS011;7165;52.388;4.928;2024-02-23T11:27:29;4.70;;;2.90;;
14171;SDS011;7165;52.388;4.928;2024-02-23T11:29:59;3.22;;;2.97;;
14171;SDS011;7165;52.388;4.928;2024-02-23T11:32:35;5.15;;;3.35;;
14171;SDS011;7165;52.388;4.928;2024-02-23T11:35:05;5.35;;;3.95;;
14171;SDS011;7165;52.388;4.928;2024-02-23T11:37:44;4.80;;;3.28;;
14171;SDS011;7165;52.388;4.928;2024-02-23T11:40:12;5.47;;;3.55;;
14171;SDS011;7165;52.388;4.928;2024-02-23T11:42:39;8.20;;;4.25;;
14171;SDS011;7165;52.388;4.928;2024-02-23T11:45:08;7.18;;;3.20;;
14171;SDS011;7165;52.388;4.928;2024-02-23T11:47:36;4.28;;;3.05;;
14171;SDS011;7165;52.388;4.928;2024-02-23T11:50:03;10.68;;;3.97;;
14171;SDS011;7165;52.388;4.928;2024-02-23T11:52:31;6.68;;;3.80;;
14171;SDS011;7165;52.388;4.928;2024-02-23T11:55:00;5.97;;;3.13;;
14171;SDS011;7165;52.388;4.928;2024-02-23T11:57:27;4.43;;;3.35;;
14171;SDS011;7165;52.388;4.928;2024-02-23T11:59:54;5.15;;;3.30;;
14171;SDS011;7165;52.388;4.928;2024-02-23T12:02:21;5.67;;;3.77;;
14171;SDS011;7165;52.388;4.928;2024-02-23T12:07:16;8.10;;;3.40;;
14171;SDS011;7165;52.388;4.928;2024-02-23T13:35:43;5.15;;;3.70;;
14171;SDS011;7165;52.388;4.928;2024-02-23T13:38:11;5.00;;;2.28;;
14171;SDS011;7165;52.388;4.928;2024-02-23T13:40:38;3.13;;;2.40;;
14171;SDS011;7165;52.388;4.928;2024-02-23T13:43:05;5.75;;;2.95;;
14171;SDS011;7165;52.388;4.928;2024-02-23T13:45:32;6.25;;;3.05;;
14171;SDS011;7165;52.388;4.928;2024-02-23T13:47:59;5.40;;;2.90;;
14171;SDS011;7165;52.388;4.928;2024-02-23T13:50:27;4.45;;;2.85;;
14171;SDS011;7165;52.388;4.928;2024-02-23T13:52:54;3.90;;;2.78;;
14171;SDS011;7165;52.388;4.928;2024-02-23T13:55:22;3.28;;;2.55;;
14171;SDS011;7165;52.388;4.928;2024-02-23T13:57:49;5.25;;;3.08;;
14171;SDS011;7165;52.388;4.928;2024-02-23T14:00:17;2.97;;;2.70;;
14171;SDS011;7165;52.388;4.928;2024-02-23T14:02:45;5.60;;;3.15;;
14171;SDS011;7165;52.388;4.928;2024-02-23T14:05:12;5.00;;;2.53;;
14171;SDS011;7165;52.388;4.928;2024-02-23T14:07:40;3.92;;;2.75;;
14171;SDS011;7165;52.388;4.928;2024-02-23T14:10:07;3.08;;;2.50;;
14171;SDS011;7165;52.388;4.928;2024-02-23T14:12:36;2.50;;;2.30;;
14171;SDS011;7165;52.388;4.928;2024-02-23T14:15:03;5.55;;;2.55;;
14171;SDS011;7165;52.388;4.928;2024-02-23T14:17:31;4.97;;;3.30;;
14171;SDS011;7165;52.388;4.928;2024-02-23T14:19:59;3.88;;;2.63;;
14171;SDS011;7165;52.388;4.928;2024-02-23T14:22:26;3.53;;;2.38;;
14171;SDS011;7165;52.388;4.928;2024-02-23T14:24:53;2.45;;;2.25;;
14171;SDS011;7165;52.388;4.928;2024-02-23T14:27:20;4.03;;;2.38;;
14171;SDS011;7165;52.388;4.928;2024-02-23T14:29:49;5.00;;;2.50;;
14171;SDS011;7165;52.388;4.928;2024-02-23T14:32:16;3.72;;;2.72;;
14171;SDS011;7165;52.388;4.928;2024-02-23T14:34:43;3.20;;;2.20;;
14171;SDS011;7165;52.388;4.928;2024-02-23T14:37:10;7.22;;;2.97;;
14171;SDS011;7165;52.388;4.928;2024-02-23T14:39:37;3.40;;;2.22;;
14171;SDS011;7165;52.388;4.928;2024-02-23T14:42:04;2.88;;;2.20;;
14171;SDS011;7165;52.388;4.928;2024-02-23T14:44:31;2.72;;;2.47;;
14171;SDS011;7165;52.388;4.928;2024-02-23T14:46:59;2.30;;;2.20;;
14171;SDS011;7165;52.388;4.928;2024-02-23T14:49:26;3.83;;;2.85;;
14171;SDS011;7165;52.388;4.928;2024-02-23T14:51:53;3.03;;;1.73;;
14171;SDS011;7165;52.388;4.928;2024-02-23T14:54:19;3.78;;;2.50;;
14171;SDS011;7165;52.388;4.928;2024-02-23T14:56:46;2.30;;;2.10;;
14171;SDS011;7165;52.388;4.928;2024-02-23T14:59:13;3.15;;;2.05;;
14171;SDS011;7165;52.388;4.928;2024-02-23T15:01:40;5.28;;;2.45;;
14171;SDS011;7165;52.388;4.928;2024-02-23T15:04:08;2.92;;;2.55;;
14171;SDS011;7165;52.388;4.928;2024-02-23T15:06:35;3.00;;;2.17;;
14171;SDS011;7165;52.388;4.928;2024-02-23T15:09:02;1.85;;;1.75;;
14171;SDS011;7165;52.388;4.928;2024-02-23T15:11:29;2.28;;;2.08;;
14171;SDS011;7165;52.388;4.928;2024-02-23T15:13:57;2.72;;;2.10;;
14171;SDS011;7165;52.388;4.928;2024-02-23T15:16:26;2.30;;;2.10;;
14171;SDS011;7165;52.388;4.928;2024-02-23T15:18:56;2.03;;;1.90;;
14171;SDS011;7165;52.388;4.928;2024-02-23T15:21:24;5.78;;;2.20;;
14171;SDS011;7165;52.388;4.928;2024-02-23T15:23:51;2.75;;;2.53;;
14171;SDS011;7165;52.388;4.928;2024-02-23T15:26:18;2.58;;;2.15;;
14171;SDS011;7165;52.388;4.928;2024-02-23T15:28:45;2.55;;;2.20;;
14171;SDS011;7165;52.388;4.928;2024-02-23T15:31:12;3.15;;;2.95;;
14171;SDS011;7165;52.388;4.928;2024-02-23T15:33:39;2.97;;;2.50;;
14171;SDS011;7165;52.388;4.928;2024-02-23T15:36:06;3.47;;;2.85;;
14171;SDS011;7165;52.388;4.928;2024-02-23T15:38:34;2.95;;;2.50;;
14171;SDS011;7165;52.388;4.928;2024-02-23T15:41:02;4.65;;;3.13;;
14171;SDS011;7165;52.388;4.928;2024-02-23T15:43:29;2.53;;;2.42;;
14171;SDS011;7165;52.388;4.928;2024-02-23T15:45:56;3.65;;;2.42;;
14171;SDS011;7165;52.388;4.928;2024-02-23T15:48:23;2.60;;;2.40;;
14171;SDS011;7165;52.388;4.928;2024-02-23T15:50:51;2.80;;;2.60;;
14171;SDS011;7165;52.388;4.928;2024-02-23T15:53:18;2.58;;;2.38;;
14171;SDS011;7165;52.388;4.928;2024-02-23T15:55:46;3.03;;;2.83;;
14171;SDS011;7165;52.388;4.928;2024-02-23T15:58:13;3.78;;;2.88;;
14171;SDS011;7165;52.388;4.928;2024-02-23T16:00:41;3.15;;;2.85;;
14171;SDS011;7165;52.388;4.928;2024-02-23T16:03:08;3.30;;;3.10;;
14171;SDS011;7165;52.388;4.928;2024-02-23T16:05:35;2.78;;;2.60;;
14171;SDS011;7165;52.388;4.928;2024-02-23T16:08:02;3.28;;;2.78;;
14171;SDS011;7165;52.388;4.928;2024-02-23T16:10:30;3.08;;;2.78;;
14171;SDS011;7165;52.388;4.928;2024-02-23T16:12:58;2.65;;;2.55;;
14171;SDS011;7165;52.388;4.928;2024-02-23T16:15:25;2.78;;;2.58;;
14171;SDS011;7165;52.388;4.928;2024-02-23T16:17:53;4.97;;;2.60;;
14171;SDS011;7165;52.388;4.928;2024-02-23T16:20:21;3.00;;;2.72;;
14171;SDS011;7165;52.388;4.928;2024-02-23T16:22:48;2.92;;;2.60;;
14171;SDS011;7165;52.388;4.928;2024-02-23T16:25:16;4.25;;;2.90;;
14171;SDS011;7165;52.388;4.928;2024-02-23T16:27:43;3.38;;;3.17;;
14171;SDS011;7165;52.388;4.928;2024-02-23T16:30:12;4.75;;;3.40;;
14171;SDS011;7165;52.388;4.928;2024-02-23T16:32:39;4.38;;;3.42;;
14171;SDS011;7165;52.388;4.928;2024-02-23T16:35:06;3.97;;;3.15;;
14171;SDS011;7165;52.388;4.928;2024-02-23T16:37:35;3.83;;;3.17;;
14171;SDS011;7165;52.388;4.928;2024-02-23T16:40:02;4.20;;;2.80;;